Time;durP1;ratioP1;P1;durP2;ratioP2;P2;SDS_P1;SDS_P2;PMS_P1;PMS_P2;Temp;Humidity;BMP_temperature;BMP_pressure;BME280_temperature;BME280_humidity;BME280_pressure;Samples;Min_cycle;Max_cycle;Signal;HPM_P1;HPM_P2
2022/05/19 00:01:51;;;;;;;4.80;3.33;;;;;;;;;;5074699;28;20245;-64
2022/05/19 00:04:17;;;;;;;4.67;3.20;;;;;;;;;;5074918;28;20170;-64
2022/05/19 00:06:43;;;;;;;3.90;3.50;;;;;;;;;;5074625;28;20176;-64
2022/05/19 00:09:09;;;;;;;7.47;3.70;;;;;;;;;;5056688;28;20201;-64
2022/05/19 00:11:36;;;;;;;4.33;3.43;;;;;;;;;;5074981;28;20248;-64
2022/05/19 00:14:02;;;;;;;4.87;3.10;;;;;;;;;;5056713;28;20620;-64
2022/05/19 00:16:28;;;;;;;4.53;3.40;;;;;;;;;;5056574;28;20531;-64
2022/05/19 00:18:54;;;;;;;3.47;3.17;;;;;;;;;;5056861;28;20197;-63
2022/05/19 00:21:20;;;;;;;3.97;3.47;;;;;;;;;;5074553;28;20212;-65
2022/05/19 00:23:46;;;;;;;3.20;2.90;;;;;;;;;;5074278;28;20174;-64
2022/05/19 00:26:12;;;;;;;3.90;3.30;;;;;;;;;;5056259;28;20231;-64
2022/05/19 00:28:38;;;;;;;4.27;3.10;;;;;;;;;;5073618;28;20189;-64
2022/05/19 00:31:04;;;;;;;3.73;3.00;;;;;;;;;;5075133;28;20177;-64
2022/05/19 00:33:30;;;;;;;3.37;3.07;;;;;;;;;;5057122;28;20239;-64
2022/05/19 00:35:56;;;;;;;6.23;2.93;;;;;;;;;;5075334;28;20234;-65
2022/05/19 00:38:22;;;;;;;5.57;3.37;;;;;;;;;;5074794;28;20239;-64
2022/05/19 00:40:49;;;;;;;4.20;3.07;;;;;;;;;;5073988;28;20220;-64
2022/05/19 00:43:15;;;;;;;6.27;3.97;;;;;;;;;;5074436;28;20177;-64
2022/05/19 00:45:49;;;;;;;3.23;2.80;;;;;;;;;;5074108;28;20235;-64
2022/05/19 00:48:26;;;;;;;3.47;3.10;;;;;;;;;;5056337;28;20170;-65
2022/05/19 00:50:55;;;;;;;3.87;3.17;;;;;;;;;;5056300;28;20204;-64
2022/05/19 00:53:28;;;;;;;5.13;3.13;;;;;;;;;;5056328;28;20213;-64
2022/05/19 00:55:54;;;;;;;3.53;3.23;;;;;;;;;;5075000;28;20249;-64
2022/05/19 00:58:23;;;;;;;3.40;3.10;;;;;;;;;;5073812;28;20182;-64
2022/05/19 01:00:49;;;;;;;4.20;2.90;;;;;;;;;;5073820;28;20592;-64
2022/05/19 01:03:17;;;;;;;4.60;2.87;;;;;;;;;;5074199;28;20256;-64
2022/05/19 01:05:45;;;;;;;3.47;2.73;;;;;;;;;;5055906;28;20177;-64
2022/05/19 01:08:14;;;;;;;3.37;3.07;;;;;;;;;;5073856;28;20707;-64
2022/05/19 01:10:41;;;;;;;3.93;2.97;;;;;;;;;;5055743;28;20670;-64
2022/05/19 01:13:07;;;;;;;6.53;3.20;;;;;;;;;;5073976;28;20262;-64
2022/05/19 01:15:33;;;;;;;3.20;2.93;;;;;;;;;;5074054;28;20177;-65
2022/05/19 01:17:59;;;;;;;3.17;2.73;;;;;;;;;;5055875;28;20190;-65
2022/05/19 01:20:26;;;;;;;3.43;3.13;;;;;;;;;;5073505;28;20551;-64
2022/05/19 01:22:55;;;;;;;3.83;3.17;;;;;;;;;;5073960;28;20199;-65
2022/05/19 01:25:40;;;;;;;6.07;3.47;;;;;;;;;;5055817;28;20178;-65
2022/05/19 01:28:07;;;;;;;6.77;2.80;;;;;;;;;;5073981;28;20177;-65
2022/05/19 01:30:33;;;;;;;4.17;3.30;;;;;;;;;;5055791;28;20586;-65
2022/05/19 01:32:59;;;;;;;3.30;3.00;;;;;;;;;;5074293;28;20185;-65
2022/05/19 01:35:25;;;;;;;5.17;3.20;;;;;;;;;;5073809;28;20642;-66
2022/05/19 01:37:52;;;;;;;3.07;2.77;;;;;;;;;;5073878;28;20231;-65
2022/05/19 01:40:27;;;;;;;4.83;3.47;;;;;;;;;;5059192;28;20257;-65
2022/05/19 01:43:09;;;;;;;4.30;3.10;;;;;;;;;;5078163;28;20173;-65
2022/05/19 01:45:52;;;;;;;2.97;2.67;;;;;;;;;;5059535;28;20277;-65
2022/05/19 01:48:23;;;;;;;5.67;2.90;;;;;;;;;;5077576;28;20169;-65
2022/05/19 01:50:54;;;;;;;2.70;2.50;;;;;;;;;;5077227;28;20202;-65
2022/05/19 01:53:28;;;;;;;2.57;2.37;;;;;;;;;;5078101;28;20166;-65
2022/05/19 01:56:01;;;;;;;6.53;2.60;;;;;;;;;;5059321;28;20185;-65
2022/05/19 01:58:46;;;;;;;3.17;2.87;;;;;;;;;;5077203;28;20186;-64
2022/05/19 02:01:13;;;;;;;3.00;2.80;;;;;;;;;;5077033;28;20193;-64
2022/05/19 02:03:54;;;;;;;3.73;2.80;;;;;;;;;;5058979;28;20319;-64
2022/05/19 02:06:29;;;;;;;3.70;2.90;;;;;;;;;;5077193;28;20177;-64
2022/05/19 02:08:57;;;;;;;7.07;3.00;;;;;;;;;;5058962;28;20206;-64
2022/05/19 02:11:29;;;;;;;2.93;2.67;;;;;;;;;;5058760;28;20235;-64
2022/05/19 02:13:57;;;;;;;3.50;2.57;;;;;;;;;;5058813;28;20650;-64
2022/05/19 02:16:24;;;;;;;3.87;2.40;;;;;;;;;;5076701;28;20265;-66
2022/05/19 02:18:51;;;;;;;3.03;2.73;;;;;;;;;;5076845;28;20181;-64
2022/05/19 02:21:18;;;;;;;3.13;2.60;;;;;;;;;;5077186;28;20692;-65
2022/05/19 02:23:44;;;;;;;3.77;2.73;;;;;;;;;;5076721;28;20727;-64
2022/05/19 02:26:10;;;;;;;3.50;2.60;;;;;;;;;;5076195;28;20178;-65
2022/05/19 02:28:57;;;;;;;3.53;2.50;;;;;;;;;;5076283;28;20182;-64
2022/05/19 02:31:23;;;;;;;2.40;2.20;;;;;;;;;;5076614;28;20169;-64
2022/05/19 02:33:49;;;;;;;4.27;2.43;;;;;;;;;;5076491;28;20186;-65
2022/05/19 02:36:15;;;;;;;4.77;3.23;;;;;;;;;;5076408;28;20231;-64
2022/05/19 02:38:41;;;;;;;2.77;2.57;;;;;;;;;;5076378;28;20286;-64
2022/05/19 02:41:07;;;;;;;3.23;2.90;;;;;;;;;;5076288;28;20202;-64
2022/05/19 02:43:33;;;;;;;6.10;3.20;;;;;;;;;;5076356;28;20205;-64
2022/05/19 02:45:59;;;;;;;2.87;2.67;;;;;;;;;;5058428;28;20178;-65
2022/05/19 02:48:25;;;;;;;4.43;2.80;;;;;;;;;;5076895;28;20169;-66
2022/05/19 02:50:51;;;;;;;3.30;2.77;;;;;;;;;;5075505;28;20292;-70
2022/05/19 02:53:18;;;;;;;2.90;2.67;;;;;;;;;;5076122;28;20177;-65
2022/05/19 02:55:44;;;;;;;3.33;2.43;;;;;;;;;;5075748;28;20184;-66
2022/05/19 02:58:11;;;;;;;2.73;2.53;;;;;;;;;;5076049;28;20220;-65
2022/05/19 03:00:39;;;;;;;5.47;3.00;;;;;;;;;;5075665;28;20244;-65
2022/05/19 03:03:05;;;;;;;2.90;2.70;;;;;;;;;;5075797;28;20251;-65
2022/05/19 03:05:32;;;;;;;2.87;2.60;;;;;;;;;;5057493;28;20203;-65
2022/05/19 03:07:58;;;;;;;3.27;2.97;;;;;;;;;;5057398;28;20182;-66
2022/05/19 03:10:24;;;;;;;2.60;2.40;;;;;;;;;;5057606;28;20198;-66
2022/05/19 03:12:50;;;;;;;2.93;2.67;;;;;;;;;;5075729;28;20174;-65
2022/05/19 03:15:17;;;;;;;2.67;2.47;;;;;;;;;;5057551;28;20236;-66
2022/05/19 03:17:43;;;;;;;3.00;2.70;;;;;;;;;;5075567;28;20257;-67
2022/05/19 03:20:10;;;;;;;3.53;2.97;;;;;;;;;;5075417;28;20292;-66
2022/05/19 03:22:36;;;;;;;3.40;3.10;;;;;;;;;;5075302;28;20201;-65
2022/05/19 03:25:03;;;;;;;3.40;3.10;;;;;;;;;;5075115;28;20211;-65
2022/05/19 03:27:28;;;;;;;3.17;2.87;;;;;;;;;;5075309;28;20202;-66
2022/05/19 03:29:54;;;;;;;2.77;2.57;;;;;;;;;;5075197;28;20729;-65
2022/05/19 03:32:30;;;;;;;4.13;2.67;;;;;;;;;;5075528;28;20239;-65
2022/05/19 03:34:56;;;;;;;4.80;2.77;;;;;;;;;;5074958;28;20234;-65
2022/05/19 03:37:22;;;;;;;2.93;2.63;;;;;;;;;;5075106;28;20178;-65
2022/05/19 03:39:48;;;;;;;3.87;2.60;;;;;;;;;;5075092;28;20665;-66
2022/05/19 03:42:14;;;;;;;5.30;2.50;;;;;;;;;;5075012;28;20185;-65
2022/05/19 03:44:40;;;;;;;4.77;2.70;;;;;;;;;;5074717;28;20181;-65
2022/05/19 03:47:06;;;;;;;4.73;2.87;;;;;;;;;;5074788;28;20227;-65
2022/05/19 03:49:32;;;;;;;2.73;2.53;;;;;;;;;;5075299;28;20228;-65
2022/05/19 03:51:58;;;;;;;3.20;2.87;;;;;;;;;;5074789;28;20178;-66
2022/05/19 03:54:25;;;;;;;3.27;2.77;;;;;;;;;;5074793;28;20185;-65
2022/05/19 03:56:50;;;;;;;3.60;2.83;;;;;;;;;;5056650;28;20247;-65
2022/05/19 03:59:16;;;;;;;4.67;2.77;;;;;;;;;;5056338;28;20205;-66
2022/05/19 04:01:42;;;;;;;3.43;2.83;;;;;;;;;;5074300;28;20170;-65
2022/05/19 04:04:09;;;;;;;3.90;2.90;;;;;;;;;;5056310;28;20264;-65
2022/05/19 04:06:35;;;;;;;3.13;2.83;;;;;;;;;;5074054;28;20178;-65
2022/05/19 04:09:03;;;;;;;2.93;2.60;;;;;;;;;;5056364;28;20226;-65
2022/05/19 04:11:29;;;;;;;3.60;3.13;;;;;;;;;;5074789;28;20268;-65
2022/05/19 04:13:55;;;;;;;5.47;2.97;;;;;;;;;;5056182;28;20216;-66
2022/05/19 04:16:21;;;;;;;3.17;2.70;;;;;;;;;;5074466;28;20174;-66
2022/05/19 04:18:47;;;;;;;4.10;2.40;;;;;;;;;;5074286;28;20256;-65
2022/05/19 04:21:12;;;;;;;3.93;2.87;;;;;;;;;;5074026;28;20200;-65
2022/05/19 04:23:39;;;;;;;3.03;2.73;;;;;;;;;;5074682;28;20250;-65
2022/05/19 04:26:05;;;;;;;3.57;2.80;;;;;;;;;;5056103;28;20177;-65
2022/05/19 04:28:32;;;;;;;3.10;2.80;;;;;;;;;;5074113;28;20276;-66
2022/05/19 04:31:00;;;;;;;3.20;2.90;;;;;;;;;;5074151;28;20197;-69
2022/05/19 04:33:26;;;;;;;4.90;2.93;;;;;;;;;;5073873;28;20180;-66
2022/05/19 04:35:52;;;;;;;3.17;2.53;;;;;;;;;;5055915;28;20192;-65
2022/05/19 04:38:18;;;;;;;2.97;2.70;;;;;;;;;;5074330;28;20178;-65
2022/05/19 04:40:47;;;;;;;2.90;2.60;;;;;;;;;;5055968;28;20684;-65
2022/05/19 04:43:14;;;;;;;2.80;2.57;;;;;;;;;;5074038;28;20173;-65
2022/05/19 04:45:40;;;;;;;2.90;2.70;;;;;;;;;;5074139;28;20170;-65
2022/05/19 04:48:06;;;;;;;3.50;2.50;;;;;;;;;;5073890;28;20185;-65
2022/05/19 04:50:32;;;;;;;2.87;2.60;;;;;;;;;;5055522;28;20209;-65
2022/05/19 04:52:58;;;;;;;4.17;2.97;;;;;;;;;;5055761;28;20638;-65
2022/05/19 04:55:25;;;;;;;2.70;2.50;;;;;;;;;;5074403;28;20227;-65
2022/05/19 04:57:51;;;;;;;2.80;2.60;;;;;;;;;;5056181;28;20177;-66
2022/05/19 05:00:17;;;;;;;4.13;2.53;;;;;;;;;;5073582;28;20202;-65
2022/05/19 05:02:43;;;;;;;4.07;3.23;;;;;;;;;;5073498;28;20178;-66
2022/05/19 05:05:10;;;;;;;4.47;2.90;;;;;;;;;;5073224;28;20180;-65
2022/05/19 05:07:36;;;;;;;3.43;3.13;;;;;;;;;;5073087;28;20253;-65
2022/05/19 05:10:01;;;;;;;4.77;3.03;;;;;;;;;;5073269;28;20677;-65
2022/05/19 05:12:27;;;;;;;5.13;3.20;;;;;;;;;;5073296;28;20178;-65
2022/05/19 05:14:53;;;;;;;4.70;3.27;;;;;;;;;;5072416;28;20181;-65
2022/05/19 05:17:21;;;;;;;3.20;2.90;;;;;;;;;;5073129;28;20173;-65
2022/05/19 05:19:47;;;;;;;6.47;3.20;;;;;;;;;;5054587;28;20292;-65
2022/05/19 05:22:13;;;;;;;4.63;3.00;;;;;;;;;;5054767;28;20189;-65
2022/05/19 05:24:39;;;;;;;6.13;3.50;;;;;;;;;;5072713;28;20174;-65
2022/05/19 05:27:05;;;;;;;3.50;3.20;;;;;;;;;;5073416;28;20170;-65
2022/05/19 05:29:32;;;;;;;4.33;3.20;;;;;;;;;;5073012;28;20342;-66
2022/05/19 05:31:58;;;;;;;4.03;3.40;;;;;;;;;;5073695;28;20553;-66
2022/05/19 05:34:24;;;;;;;6.70;3.93;;;;;;;;;;5073002;28;20268;-66
2022/05/19 05:36:50;;;;;;;3.17;2.93;;;;;;;;;;5055150;28;20223;-65
2022/05/19 05:39:16;;;;;;;3.40;3.10;;;;;;;;;;5055116;28;20205;-65
2022/05/19 05:41:42;;;;;;;4.67;3.60;;;;;;;;;;5055079;28;20242;-66
2022/05/19 05:44:08;;;;;;;4.17;3.50;;;;;;;;;;5055306;28;20269;-65
2022/05/19 05:46:35;;;;;;;3.93;3.37;;;;;;;;;;5073544;28;20685;-65
2022/05/19 05:49:01;;;;;;;4.13;3.50;;;;;;;;;;5055224;28;20221;-65
2022/05/19 05:51:27;;;;;;;3.83;3.43;;;;;;;;;;5055321;28;20209;-65
2022/05/19 05:53:53;;;;;;;4.40;3.43;;;;;;;;;;5073739;28;20638;-66
2022/05/19 05:56:20;;;;;;;3.73;3.33;;;;;;;;;;5073304;28;20184;-66
2022/05/19 05:58:46;;;;;;;3.30;3.00;;;;;;;;;;5073272;28;20178;-65
2022/05/19 06:01:12;;;;;;;3.80;3.00;;;;;;;;;;5073044;28;20267;-66
2022/05/19 06:03:39;;;;;;;5.20;3.67;;;;;;;;;;5073204;28;20170;-65
2022/05/19 06:06:05;;;;;;;4.43;3.50;;;;;;;;;;5072943;28;20631;-63
2022/05/19 06:08:31;;;;;;;4.13;3.73;;;;;;;;;;5073034;28;20640;-64
2022/05/19 06:10:59;;;;;;;4.00;3.63;;;;;;;;;;5054957;28;20205;-64
2022/05/19 06:13:25;;;;;;;3.83;3.53;;;;;;;;;;5054791;28;20272;-64
2022/05/19 06:15:51;;;;;;;3.50;3.20;;;;;;;;;;5073021;28;20182;-65
2022/05/19 06:18:18;;;;;;;3.43;3.13;;;;;;;;;;5072830;28;20184;-64
2022/05/19 06:20:44;;;;;;;6.50;3.60;;;;;;;;;;5054748;28;20206;-66
2022/05/19 06:23:11;;;;;;;3.23;2.97;;;;;;;;;;5073015;28;20201;-66
2022/05/19 06:25:37;;;;;;;3.40;3.10;;;;;;;;;;5055680;28;20177;-65
2022/05/19 06:28:03;;;;;;;3.77;3.13;;;;;;;;;;5058238;28;20182;-64
2022/05/19 06:30:30;;;;;;;5.20;3.50;;;;;;;;;;5076288;28;20217;-65
2022/05/19 06:32:56;;;;;;;3.87;3.50;;;;;;;;;;5058228;28;20178;-63
2022/05/19 06:35:24;;;;;;;4.63;3.67;;;;;;;;;;5076007;28;20181;-64
2022/05/19 06:37:50;;;;;;;5.57;3.77;;;;;;;;;;5076236;28;20270;-65
2022/05/19 06:40:17;;;;;;;4.90;3.53;;;;;;;;;;5058051;28;20213;-65
2022/05/19 06:42:43;;;;;;;3.60;3.30;;;;;;;;;;5075996;28;20174;-65
2022/05/19 06:45:10;;;;;;;6.00;4.43;;;;;;;;;;5076057;28;20550;-64
2022/05/19 06:47:39;;;;;;;5.17;4.30;;;;;;;;;;5075732;28;20198;-65
2022/05/19 06:50:08;;;;;;;11.60;5.10;;;;;;;;;;5075351;28;20210;-65
2022/05/19 06:52:34;;;;;;;6.43;4.37;;;;;;;;;;5057591;28;20634;-65
2022/05/19 06:55:02;;;;;;;6.67;4.40;;;;;;;;;;5057784;28;20227;-65
2022/05/19 06:57:31;;;;;;;7.47;5.07;;;;;;;;;;5075463;28;20197;-65
2022/05/19 06:59:57;;;;;;;4.57;3.83;;;;;;;;;;5075293;28;20224;-64
2022/05/19 07:02:23;;;;;;;7.67;4.00;;;;;;;;;;5057507;28;20642;-65
2022/05/19 07:04:49;;;;;;;4.53;3.33;;;;;;;;;;5057244;28;20200;-65
2022/05/19 07:07:15;;;;;;;8.93;3.90;;;;;;;;;;5075201;28;20580;-65
2022/05/19 07:09:42;;;;;;;3.90;3.30;;;;;;;;;;5075356;28;20234;-65
2022/05/19 07:12:09;;;;;;;6.03;3.60;;;;;;;;;;5057224;28;20177;-65
2022/05/19 07:14:35;;;;;;;4.83;3.10;;;;;;;;;;5075606;28;20174;-65
2022/05/19 07:17:01;;;;;;;3.70;3.30;;;;;;;;;;5075111;28;20186;-66
2022/05/19 07:22:17;;;;;;;5.10;3.37;;;;;;;;;;5075614;28;20173;-65
2022/05/19 07:24:43;;;;;;;3.33;3.00;;;;;;;;;;5075440;28;20238;-64
2022/05/19 07:27:09;;;;;;;4.87;3.40;;;;;;;;;;5075224;28;20205;-65
2022/05/19 07:29:35;;;;;;;5.47;3.60;;;;;;;;;;5075244;28;20220;-64
2022/05/19 07:32:02;;;;;;;3.53;3.23;;;;;;;;;;5075438;28;20239;-64
2022/05/19 07:34:30;;;;;;;5.83;3.27;;;;;;;;;;5075591;28;20582;-65
2022/05/19 07:36:57;;;;;;;3.47;3.10;;;;;;;;;;5056614;28;20665;-65
2022/05/19 07:39:24;;;;;;;4.77;3.20;;;;;;;;;;5074519;28;20232;-65
2022/05/19 07:41:53;;;;;;;3.23;2.90;;;;;;;;;;5074483;28;20169;-65
2022/05/19 07:44:19;;;;;;;3.47;3.17;;;;;;;;;;5056642;28;20177;-65
2022/05/19 07:46:45;;;;;;;3.63;3.20;;;;;;;;;;5056378;28;20215;-65
2022/05/19 07:49:11;;;;;;;3.73;3.13;;;;;;;;;;5056387;28;20206;-64
2022/05/19 07:51:40;;;;;;;3.97;3.20;;;;;;;;;;5074346;28;20186;-65
2022/05/19 07:54:14;;;;;;;3.33;3.03;;;;;;;;;;5056426;28;20280;-65
2022/05/19 07:56:40;;;;;;;3.97;3.13;;;;;;;;;;5074247;28;20202;-64
2022/05/19 07:59:08;;;;;;;3.50;3.20;;;;;;;;;;5056217;28;20206;-65
2022/05/19 08:01:34;;;;;;;3.73;3.30;;;;;;;;;;5073989;28;20270;-64
2022/05/19 08:04:00;;;;;;;4.27;3.13;;;;;;;;;;5074270;28;20174;-66
2022/05/19 08:06:28;;;;;;;4.77;3.00;;;;;;;;;;5073931;28;20180;-65
2022/05/19 08:08:54;;;;;;;3.93;3.33;;;;;;;;;;5073854;28;20173;-64
2022/05/19 08:11:20;;;;;;;3.47;3.17;;;;;;;;;;5073928;28;20178;-65
2022/05/19 08:16:30;;;;;;;4.23;3.20;;;;;;;;;;5074256;28;20265;-65
2022/05/19 08:18:56;;;;;;;3.60;3.00;;;;;;;;;;5074043;28;20244;-64
2022/05/19 08:21:22;;;;;;;4.47;3.10;;;;;;;;;;5073871;28;20202;-65
2022/05/19 08:23:50;;;;;;;3.57;3.17;;;;;;;;;;5073731;28;20273;-65
2022/05/19 08:26:17;;;;;;;3.63;3.20;;;;;;;;;;5055742;28;20653;-65
2022/05/19 08:28:43;;;;;;;3.90;3.07;;;;;;;;;;5073577;28;20253;-64
2022/05/19 08:31:11;;;;;;;3.03;2.83;;;;;;;;;;5074150;28;20166;-65
2022/05/19 08:33:38;;;;;;;5.43;3.50;;;;;;;;;;5073921;28;20181;-65
2022/05/19 08:36:04;;;;;;;3.17;2.87;;;;;;;;;;5055620;28;20181;-65
2022/05/19 08:38:31;;;;;;;3.07;2.87;;;;;;;;;;5073955;28;20264;-65
2022/05/19 08:41:03;;;;;;;3.27;2.93;;;;;;;;;;5055516;28;20338;-65
2022/05/19 08:43:45;;;;;;;2.80;2.60;;;;;;;;;;5073407;28;20197;-65
2022/05/19 08:46:18;;;;;;;3.10;2.80;;;;;;;;;;5055499;28;20214;-64
2022/05/19 08:48:44;;;;;;;4.93;3.00;;;;;;;;;;5054684;28;20198;-65
2022/05/19 08:51:12;;;;;;;3.50;2.70;;;;;;;;;;5073339;28;20179;-65
2022/05/19 08:53:41;;;;;;;3.03;2.67;;;;;;;;;;5073327;28;20223;-65
2022/05/19 08:56:21;;;;;;;4.23;2.93;;;;;;;;;;5073155;28;20260;-65
2022/05/19 08:58:53;;;;;;;3.20;2.90;;;;;;;;;;5073436;28;20177;-64
2022/05/19 09:01:22;;;;;;;3.17;2.87;;;;;;;;;;5073076;28;20250;-65
2022/05/19 09:03:57;;;;;;;2.87;2.57;;;;;;;;;;5055368;28;20264;-65
2022/05/19 09:06:28;;;;;;;3.03;2.73;;;;;;;;;;5055433;28;20165;-65
2022/05/19 09:08:57;;;;;;;3.17;2.70;;;;;;;;;;5055326;28;20224;-65
2022/05/19 09:11:30;;;;;;;4.27;2.83;;;;;;;;;;5055417;28;20181;-64
2022/05/19 09:14:22;;;;;;;2.80;2.60;;;;;;;;;;5055226;28;20693;-64
2022/05/19 09:16:49;;;;;;;3.47;2.83;;;;;;;;;;5068932;28;20202;-64
2022/05/19 09:19:22;;;;;;;4.17;3.30;;;;;;;;;;5073067;28;20651;-65
2022/05/19 09:21:52;;;;;;;4.93;3.17;;;;;;;;;;5073533;28;20575;-65
2022/05/19 09:24:19;;;;;;;3.63;3.33;;;;;;;;;;5073391;28;20166;-65
2022/05/19 09:26:47;;;;;;;3.07;2.87;;;;;;;;;;5055154;28;20669;-65
2022/05/19 09:29:15;;;;;;;3.80;3.10;;;;;;;;;;5072700;28;20213;-65
2022/05/19 09:31:41;;;;;;;4.40;2.90;;;;;;;;;;5055110;28;20240;-65
2022/05/19 09:34:08;;;;;;;3.20;2.90;;;;;;;;;;5055158;28;20734;-65
2022/05/19 09:36:41;;;;;;;3.43;3.00;;;;;;;;;;5072873;28;20174;-65
2022/05/19 09:39:11;;;;;;;5.53;3.20;;;;;;;;;;5072755;28;20194;-65
2022/05/19 09:41:41;;;;;;;3.30;3.00;;;;;;;;;;5072850;28;20197;-65
2022/05/19 09:44:12;;;;;;;3.17;2.87;;;;;;;;;;5072768;28;20174;-65
2022/05/19 09:46:43;;;;;;;6.47;3.17;;;;;;;;;;5072827;28;20166;-65
2022/05/19 09:49:18;;;;;;;4.30;3.47;;;;;;;;;;5054694;28;20232;-65
2022/05/19 09:51:48;;;;;;;3.83;3.33;;;;;;;;;;5072968;28;20249;-65
2022/05/19 09:54:14;;;;;;;3.50;3.13;;;;;;;;;;5073065;28;20185;-65
2022/05/19 09:56:45;;;;;;;4.00;3.63;;;;;;;;;;5072790;28;20269;-65
2022/05/19 09:59:14;;;;;;;5.17;2.80;;;;;;;;;;5072577;28;20197;-65
2022/05/19 10:01:44;;;;;;;4.00;3.23;;;;;;;;;;5076638;28;20210;-67
2022/05/19 10:04:16;;;;;;;3.73;3.03;;;;;;;;;;5076737;28;20154;-66
2022/05/19 10:06:55;;;;;;;3.47;3.13;;;;;;;;;;5076596;28;20253;-65
2022/05/19 10:09:23;;;;;;;3.63;3.27;;;;;;;;;;5076407;28;20194;-66
2022/05/19 10:12:09;;;;;;;3.17;2.97;;;;;;;;;;5058199;28;20288;-65
2022/05/19 10:14:36;;;;;;;2.97;2.70;;;;;;;;;;5075861;28;20276;-65
2022/05/19 10:17:13;;;;;;;3.47;3.17;;;;;;;;;;5076016;28;20232;-66
2022/05/19 10:19:45;;;;;;;3.33;3.03;;;;;;;;;;5075801;28;20243;-65
2022/05/19 10:22:46;;;;;;;3.43;3.10;;;;;;;;;;5058121;28;20269;-65
2022/05/19 10:25:18;;;;;;;3.43;3.03;;;;;;;;;;4975360;28;20677;-65
2022/05/19 10:33:49;;;;;;;3.10;2.80;;;;;;;;;;5076016;28;20219;-65
2022/05/19 10:36:23;;;;;;;3.50;3.20;;;;;;;;;;5075861;28;20181;-65
2022/05/19 10:38:55;;;;;;;3.47;2.80;;;;;;;;;;5057604;28;20174;-65
2022/05/19 10:41:39;;;;;;;5.00;3.07;;;;;;;;;;5075511;28;20263;-65
2022/05/19 10:44:14;;;;;;;3.27;2.80;;;;;;;;;;5075547;28;20212;-66
2022/05/19 10:46:50;;;;;;;3.20;2.80;;;;;;;;;;5076197;28;20203;-65
2022/05/19 10:49:27;;;;;;;3.70;3.27;;;;;;;;;;5075737;28;20208;-65
2022/05/19 10:52:12;;;;;;;3.57;3.27;;;;;;;;;;5075877;28;20189;-66
2022/05/19 10:54:46;;;;;;;3.10;2.80;;;;;;;;;;5075546;28;20650;-66
2022/05/19 10:57:12;;;;;;;;;;;;;;;;;;5076012;28;20112;-65
2022/05/19 10:59:48;;;;;;;4.73;3.47;;;;;;;;;;5074051;28;20438;-65
2022/05/19 11:02:25;;;;;;;3.30;3.10;;;;;;;;;;5075637;28;20165;-65
2022/05/19 11:05:02;;;;;;;3.72;2.85;;;;;;;;;;5075312;28;20235;-64
2022/05/19 11:07:34;;;;;;;3.20;2.90;;;;;;;;;;5075553;28;20157;-64
2022/05/19 11:10:12;;;;;;;3.05;2.75;;;;;;;;;;5075183;28;20204;-64
2022/05/19 11:12:44;;;;;;;3.17;2.87;;;;;;;;;;5074383;28;20260;-64
2022/05/19 11:15:14;;;;;;;3.25;2.95;;;;;;;;;;5075245;28;20186;-65
2022/05/19 11:17:43;;;;;;;3.78;3.47;;;;;;;;;;5075045;28;20198;-65
2022/05/19 11:20:33;;;;;;;5.38;3.67;;;;;;;;;;5074838;28;20202;-65
2022/05/19 11:23:11;;;;;;;3.67;3.15;;;;;;;;;;5064675;28;20662;-64
2022/05/19 11:28:48;;;;;;;3.60;3.33;;;;;;;;;;5040874;28;20248;-66
2022/05/19 11:31:16;;;;;;;3.92;3.55;;;;;;;;;;5075057;28;20166;-65
2022/05/19 11:33:45;;;;;;;3.50;3.20;;;;;;;;;;5075269;28;20658;-65
2022/05/19 11:36:20;;;;;;;4.18;3.50;;;;;;;;;;5075024;28;20724;-65
2022/05/19 11:39:06;;;;;;;3.70;3.30;;;;;;;;;;5074600;28;20307;-65
2022/05/19 11:41:35;;;;;;;3.92;3.20;;;;;;;;;;5056658;28;20587;-65
2022/05/19 11:44:10;;;;;;;3.88;3.47;;;;;;;;;;5074621;28;20170;-65
2022/05/19 11:46:54;;;;;;;3.45;3.15;;;;;;;;;;5074504;28;20626;-65
2022/05/19 11:55:20;;;;;;;3.75;3.17;;;;;;;;;;5074526;28;20547;-65
2022/05/19 11:58:09;;;;;;;3.72;3.40;;;;;;;;;;5056242;28;20193;-65
2022/05/19 12:00:41;;;;;;;4.07;3.67;;;;;;;;;;5073874;28;20193;-65
2022/05/19 12:03:12;;;;;;;4.63;3.47;;;;;;;;;;5056185;28;20174;-65
2022/05/19 12:06:01;;;;;;;4.07;3.75;;;;;;;;;;5074328;28;20695;-65
2022/05/19 12:08:34;;;;;;;3.75;3.45;;;;;;;;;;5063421;28;20741;-65
2022/05/19 12:11:18;;;;;;;3.92;3.58;;;;;;;;;;5074981;28;20247;-65
2022/05/19 12:14:03;;;;;;;4.82;3.53;;;;;;;;;;5056800;28;20181;-66
2022/05/19 12:16:40;;;;;;;4.10;3.70;;;;;;;;;;5074173;28;20488;-65
2022/05/19 12:19:10;;;;;;;4.00;3.65;;;;;;;;;;5073750;28;20689;-65
2022/05/19 12:21:53;;;;;;;3.90;3.55;;;;;;;;;;5073874;28;20251;-65
2022/05/19 12:24:23;;;;;;;3.85;3.50;;;;;;;;;;5073102;28;20219;-65
2022/05/19 12:27:08;;;;;;;5.50;3.80;;;;;;;;;;5074113;28;20162;-65
2022/05/19 12:29:34;;;;;;;3.80;3.50;;;;;;;;;;5055730;28;20306;-65
2022/05/19 12:32:08;;;;;;;5.40;3.50;;;;;;;;;;5055912;28;20174;-65
2022/05/19 12:35:12;;;;;;;4.15;3.75;;;;;;;;;;5073602;28;20626;-65
2022/05/19 12:37:42;;;;;;;4.60;3.90;;;;;;;;;;4992083;28;20188;-66
2022/05/19 12:40:18;;;;;;;4.47;3.83;;;;;;;;;;4991968;28;20211;-66
2022/05/19 12:42:44;;;;;;;3.90;3.60;;;;;;;;;;5038274;28;20189;-66
2022/05/19 12:45:15;;;;;;;4.15;3.35;;;;;;;;;;5055708;28;20585;-66
2022/05/19 12:47:58;;;;;;;3.65;3.35;;;;;;;;;;5073271;28;20178;-66
2022/05/19 12:50:26;;;;;;;4.05;3.33;;;;;;;;;;5073321;28;20193;-65
2022/05/19 12:53:06;;;;;;;8.27;3.10;;;;;;;;;;5055640;28;20628;-66
2022/05/19 12:55:39;;;;;;;10.25;2.40;;;;;;;;;;5055287;28;20609;-66
2022/05/19 12:58:23;;;;;;;13.30;2.90;;;;;;;;;;5073447;28;20170;-65
2022/05/19 13:00:49;;;;;;;4.07;1.80;;;;;;;;;;5072990;28;20577;-64
2022/05/19 13:03:25;;;;;;;2.97;1.60;;;;;;;;;;5073569;28;20588;-64
2022/05/19 13:05:55;;;;;;;4.13;1.40;;;;;;;;;;5072188;28;20832;-65
2022/05/19 13:08:30;;;;;;;3.20;1.50;;;;;;;;;;5055130;28;20680;-64
2022/05/19 13:10:57;;;;;;;6.30;1.37;;;;;;;;;;5055584;28;20197;-64
2022/05/19 13:13:26;;;;;;;4.57;1.50;;;;;;;;;;5082807;22;20278;-67
2022/05/19 13:15:59;;;;;;;2.77;1.37;;;;;;;;;;5035290;28;20182;-67
2022/05/19 13:18:34;;;;;;;5.70;1.60;;;;;;;;;;5034105;28;20389;-65
2022/05/19 13:21:12;;;;;;;1.60;1.50;;;;;;;;;;5053123;28;20197;-65
2022/05/19 13:23:40;;;;;;;2.03;1.60;;;;;;;;;;5052936;28;20198;-64
2022/05/19 13:26:15;;;;;;;5.60;1.93;;;;;;;;;;5053440;28;20654;-64
2022/05/19 13:31:48;;;;;;;4.23;1.40;;;;;;;;;;5053565;28;20181;-63
2022/05/19 13:34:14;;;;;;;2.53;1.60;;;;;;;;;;5035369;28;20181;-64
2022/05/19 13:36:41;;;;;;;5.03;1.90;;;;;;;;;;5057097;28;20181;-62
2022/05/19 13:39:13;;;;;;;4.20;1.93;;;;;;;;;;5057143;28;20174;-63
2022/05/19 13:41:48;;;;;;;2.53;1.90;;;;;;;;;;5039028;28;20296;-63
2022/05/19 13:44:17;;;;;;;5.80;1.67;;;;;;;;;;5056918;28;20312;-65
2022/05/19 13:46:44;;;;;;;2.80;1.73;;;;;;;;;;5039119;28;20189;-65
2022/05/19 13:49:15;;;;;;;2.57;1.60;;;;;;;;;;5038869;28;20643;-62
2022/05/19 13:51:44;;;;;;;2.70;1.63;;;;;;;;;;5056733;28;20169;-64
2022/05/19 13:54:25;;;;;;;1.87;1.53;;;;;;;;;;5057331;28;20257;-64
2022/05/19 13:56:57;;;;;;;2.53;1.50;;;;;;;;;;5056763;28;20170;-64
2022/05/19 13:59:28;;;;;;;2.87;1.77;;;;;;;;;;5057264;28;20167;-64
2022/05/19 14:01:59;;;;;;;2.20;1.67;;;;;;;;;;5038690;28;20301;-65
2022/05/19 14:04:25;;;;;;;2.10;1.65;;;;;;;;;;5055799;28;20391;-66
2022/05/19 14:06:51;;;;;;;5.93;1.90;;;;;;;;;;5056540;28;20178;-65
2022/05/19 14:09:26;;;;;;;2.80;1.70;;;;;;;;;;5056709;28;20322;-65
2022/05/19 14:12:29;;;;;;;2.80;1.57;;;;;;;;;;5038621;28;20610;-64
2022/05/19 14:14:57;;;;;;;1.70;1.40;;;;;;;;;;4940606;29;20186;-67
2022/05/19 14:17:24;;;;;;;2.63;1.70;;;;;;;;;;5037729;28;20846;-64
2022/05/19 14:19:51;;;;;;;3.03;2.17;;;;;;;;;;5057045;28;20175;-64
2022/05/19 14:22:18;;;;;;;3.23;1.97;;;;;;;;;;5055111;28;20400;-66
2022/05/19 14:24:48;;;;;;;1.97;1.50;;;;;;;;;;5057150;28;20942;-66
2022/05/19 14:27:16;;;;;;;2.60;1.60;;;;;;;;;;5056390;28;20364;-65
2022/05/19 14:29:43;;;;;;;2.87;1.70;;;;;;;;;;5056397;28;20208;-64
2022/05/19 14:32:19;;;;;;;1.70;1.43;;;;;;;;;;5056595;28;20612;-64
2022/05/19 14:34:45;;;;;;;1.77;1.67;;;;;;;;;;5056261;28;20520;-66
2022/05/19 14:37:16;;;;;;;6.83;1.80;;;;;;;;;;5038331;28;20186;-65
2022/05/19 14:39:45;;;;;;;2.57;1.80;;;;;;;;;;5038141;28;20167;-64
2022/05/19 14:44:58;;;;;;;3.03;1.53;;;;;;;;;;5056629;28;20178;-66
2022/05/19 14:47:27;;;;;;;2.27;1.60;;;;;;;;;;5037104;28;20561;-65
2022/05/19 14:49:58;;;;;;;1.60;1.40;;;;;;;;;;5037967;28;20174;-64
2022/05/19 14:52:47;;;;;;;2.33;1.60;;;;;;;;;;5055756;28;20670;-63
2022/05/19 14:55:23;;;;;;;1.57;1.47;;;;;;;;;;5009708;28;20197;-64
2022/05/19 14:57:50;;;;;;;1.73;1.50;;;;;;;;;;5056111;28;20724;-64
2022/05/19 15:00:17;;;;;;;2.00;1.80;;;;;;;;;;5055699;28;20285;-63
2022/05/19 15:02:43;;;;;;;2.93;1.80;;;;;;;;;;5055755;28;20201;-64
2022/05/19 15:05:12;;;;;;;2.90;1.97;;;;;;;;;;5055525;28;20579;-64
2022/05/19 15:07:43;;;;;;;4.63;2.07;;;;;;;;;;5055973;28;20171;-65
2022/05/19 15:10:09;;;;;;;2.23;2.07;;;;;;;;;;5055610;28;20231;-64
2022/05/19 15:12:35;;;;;;;2.70;2.30;;;;;;;;;;5037311;28;20224;-64
2022/05/19 15:15:01;;;;;;;4.33;3.93;;;;;;;;;;5055589;28;20257;-65
2022/05/19 15:17:27;;;;;;;3.70;3.40;;;;;;;;;;5055568;28;20559;-63
2022/05/19 15:19:53;;;;;;;2.90;2.40;;;;;;;;;;5055185;28;20625;-65
2022/05/19 15:22:20;;;;;;;3.73;2.37;;;;;;;;;;5055178;28;20237;-64
2022/05/19 15:24:53;;;;;;;3.70;1.80;;;;;;;;;;5055492;28;20170;-65